createdAt,value
2018-01-21T00:02:11.155Z,3.72
2018-01-21T00:04:37.291Z,3.68
2018-01-21T00:07:03.447Z,3.62
2018-01-21T00:09:29.632Z,3.54
2018-01-21T00:11:55.865Z,3.44
2018-01-21T00:14:22.119Z,3.35
2018-01-21T00:16:48.369Z,3.26
2018-01-21T00:19:14.550Z,3.18
2018-01-21T00:21:40.680Z,3.10
2018-01-21T00:24:06.910Z,3.03
2018-01-21T00:26:33.079Z,3.00
2018-01-21T00:28:59.216Z,3.00
2018-01-21T00:31:25.404Z,3.00
2018-01-21T00:33:51.598Z,2.98
2018-01-21T00:36:17.751Z,3.02
2018-01-21T00:38:43.925Z,3.06
2018-01-21T00:41:10.159Z,3.15
2018-01-21T00:43:36.364Z,3.25
2018-01-21T00:46:02.608Z,3.32
2018-01-21T00:48:28.767Z,3.33
2018-01-21T00:50:54.938Z,3.30
2018-01-21T00:53:21.165Z,3.25
2018-01-21T00:55:47.315Z,3.18
2018-01-21T00:58:13.474Z,3.10
2018-01-21T01:00:39.752Z,3.04
2018-01-21T01:03:05.945Z,3.01
2018-01-21T01:05:32.089Z,2.97
2018-01-21T01:07:58.218Z,2.92
2018-01-21T01:10:24.489Z,2.95
2018-01-21T01:12:50.703Z,2.94
2018-01-21T01:15:16.921Z,2.92
2018-01-21T01:17:43.103Z,2.87
2018-01-21T01:20:09.300Z,2.83
2018-01-21T01:22:35.684Z,2.79
2018-01-21T01:25:01.838Z,2.77
2018-01-21T01:27:27.996Z,2.79
2018-01-21T01:29:54.139Z,2.79
2018-01-21T01:32:26.604Z,2.77
2018-01-21T01:34:52.785Z,2.74
2018-01-21T01:37:18.920Z,2.71
2018-01-21T01:39:45.316Z,2.71
2018-01-21T01:42:11.584Z,2.69
2018-01-21T01:44:37.757Z,2.69
2018-01-21T01:47:03.887Z,2.66
2018-01-21T01:49:30.071Z,2.65
2018-01-21T01:51:56.361Z,2.67
2018-01-21T01:54:22.555Z,2.68
2018-01-21T01:56:48.808Z,2.67
2018-01-21T01:59:14.981Z,2.69
2018-01-21T02:01:41.117Z,2.72
2018-01-21T02:04:07.376Z,2.73
2018-01-21T02:06:33.529Z,2.73
2018-01-21T02:08:59.748Z,2.70
2018-01-21T02:11:25.955Z,2.64
2018-01-21T02:13:52.257Z,2.59
2018-01-21T02:16:18.425Z,2.55
2018-01-21T02:18:44.572Z,2.51
2018-01-21T02:21:10.769Z,2.46
2018-01-21T02:23:36.969Z,2.41
2018-01-21T02:26:03.092Z,2.36
2018-01-21T02:28:29.285Z,2.36
2018-01-21T02:30:55.481Z,2.38
2018-01-21T02:33:21.691Z,2.41
2018-01-21T02:35:47.993Z,2.40
2018-01-21T02:38:14.147Z,2.39
2018-01-21T02:40:40.366Z,2.32
2018-01-21T02:43:06.575Z,2.24
2018-01-21T02:45:32.730Z,2.24
2018-01-21T02:47:58.937Z,2.20
2018-01-21T02:50:25.104Z,2.20
2018-01-21T02:52:51.340Z,2.17
2018-01-21T02:55:17.505Z,2.12
2018-01-21T02:57:43.636Z,2.03
2018-01-21T03:00:09.779Z,2.02
2018-01-21T03:02:35.973Z,2.00
2018-01-21T03:05:02.220Z,2.00
2018-01-21T03:07:28.409Z,1.95
2018-01-21T03:09:54.621Z,1.94
2018-01-21T03:12:20.819Z,1.93
2018-01-21T03:14:47.037Z,1.91
2018-01-21T03:17:13.186Z,1.90
2018-01-21T03:19:39.400Z,1.87
2018-01-21T03:22:05.554Z,1.83
2018-01-21T03:24:31.769Z,1.79
2018-01-21T03:26:57.899Z,1.73
2018-01-21T03:29:24.047Z,1.76
2018-01-21T03:31:50.232Z,1.73
2018-01-21T03:34:16.473Z,1.71
2018-01-21T03:36:42.620Z,1.74
2018-01-21T03:39:08.786Z,1.77
2018-01-21T03:41:35.156Z,1.80
2018-01-21T03:44:01.480Z,1.86
2018-01-21T03:46:27.636Z,1.92
2018-01-21T03:48:53.783Z,1.97
2018-01-21T03:51:19.968Z,2.02
2018-01-21T03:53:46.180Z,2.03
2018-01-21T03:56:12.340Z,2.01
2018-01-21T03:58:38.494Z,2.04
2018-01-21T04:01:04.682Z,2.05
2018-01-21T04:03:31.398Z,2.03
2018-01-21T04:05:57.588Z,2.03
2018-01-21T04:08:23.745Z,2.04
2018-01-21T04:10:49.919Z,2.01
2018-01-21T04:13:16.165Z,1.99
2018-01-21T04:15:42.338Z,1.96
2018-01-21T04:18:08.474Z,1.93
2018-01-21T04:20:34.678Z,1.89
2018-01-21T04:23:00.932Z,1.86
2018-01-21T04:25:28.417Z,1.83
2018-01-21T04:27:54.612Z,1.79
2018-01-21T04:30:20.771Z,1.72
2018-01-21T04:32:46.985Z,1.63
2018-01-21T04:35:13.165Z,1.56
2018-01-21T04:37:39.324Z,1.48
2018-01-21T04:40:05.589Z,1.41
2018-01-21T04:42:31.731Z,1.37
2018-01-21T04:44:57.920Z,1.31
2018-01-21T04:47:24.067Z,1.27
2018-01-21T04:49:50.204Z,1.27
2018-01-21T04:52:16.392Z,1.26
2018-01-21T04:54:42.625Z,1.31
2018-01-21T04:57:08.745Z,1.36
2018-01-21T04:59:34.928Z,1.43
2018-01-21T05:02:01.112Z,1.50
2018-01-21T05:04:27.303Z,1.59
2018-01-21T05:06:53.446Z,1.60
2018-01-21T05:09:19.591Z,1.53
2018-01-21T05:11:45.803Z,1.45
2018-01-21T05:14:12.065Z,1.35
2018-01-21T05:16:38.269Z,1.28
2018-01-21T05:19:04.417Z,1.19
2018-01-21T05:21:30.642Z,1.12
2018-01-21T05:23:56.857Z,1.04
2018-01-21T05:26:23.033Z,0.98
2018-01-21T05:28:49.235Z,0.92
2018-01-21T05:31:15.395Z,0.87
2018-01-21T05:33:41.604Z,0.85
2018-01-21T05:36:07.767Z,0.82
2018-01-21T05:38:33.918Z,0.82
2018-01-21T05:41:00.094Z,0.80
2018-01-21T05:43:26.308Z,0.80
2018-01-21T05:45:52.480Z,0.80
2018-01-21T05:48:18.657Z,0.82
2018-01-21T05:50:44.837Z,0.84
2018-01-21T05:53:10.969Z,0.83
2018-01-21T05:55:37.217Z,0.84
2018-01-21T05:58:03.492Z,0.84
2018-01-21T06:00:29.664Z,0.85
2018-01-21T06:02:59.769Z,0.86
2018-01-21T06:05:26.060Z,0.83
2018-01-21T06:07:52.229Z,0.82
2018-01-21T06:10:18.405Z,0.83
2018-01-21T06:12:44.571Z,0.83
2018-01-21T06:15:10.793Z,0.86
2018-01-21T06:17:36.932Z,0.85
2018-01-21T06:20:03.158Z,0.86
2018-01-21T06:22:29.294Z,0.89
2018-01-21T06:24:55.496Z,0.93
2018-01-21T06:27:21.692Z,0.96
2018-01-21T06:29:48.902Z,0.97
2018-01-21T06:32:15.071Z,1.00
2018-01-21T06:34:41.315Z,1.01
2018-01-21T06:37:07.487Z,1.01
2018-01-21T06:39:33.653Z,1.01
2018-01-21T06:41:59.851Z,1.01
2018-01-21T06:44:26.691Z,1.02
2018-01-21T06:46:52.845Z,1.02
2018-01-21T06:49:19.026Z,1.04
2018-01-21T06:51:45.172Z,1.09
2018-01-21T06:54:11.368Z,1.14
2018-01-21T06:56:37.581Z,1.20
2018-01-21T06:59:03.790Z,1.26
2018-01-21T07:01:29.939Z,1.32
2018-01-21T07:03:57.666Z,1.39
2018-01-21T07:06:23.861Z,1.43
2018-01-21T07:08:50.606Z,1.45
2018-01-21T07:11:16.861Z,1.45
2018-01-21T07:13:43.054Z,1.44
2018-01-21T07:16:09.197Z,1.44
2018-01-21T07:18:35.367Z,1.43
2018-01-21T07:21:01.630Z,1.45
2018-01-21T07:23:27.792Z,1.46
2018-01-21T07:25:54.244Z,1.46
2018-01-21T07:28:20.444Z,1.44
2018-01-21T07:30:46.566Z,1.43
2018-01-21T07:33:12.729Z,1.40
2018-01-21T07:35:38.964Z,1.40
2018-01-21T07:38:05.128Z,1.38
2018-01-21T07:40:31.322Z,1.36
2018-01-21T07:42:58.339Z,1.37
2018-01-21T07:45:24.606Z,1.39
2018-01-21T07:47:50.769Z,1.42
2018-01-21T07:50:16.986Z,1.46
2018-01-21T07:52:43.156Z,1.49
2018-01-21T07:55:09.360Z,1.54
2018-01-21T07:57:35.648Z,1.59
2018-01-21T08:00:03.341Z,1.64
2018-01-21T08:02:29.662Z,1.70
2018-01-21T08:04:57.826Z,1.75
2018-01-21T08:07:24.003Z,1.78
2018-01-21T08:09:50.168Z,1.83
2018-01-21T08:12:16.354Z,1.88
2018-01-21T08:14:42.560Z,1.95
2018-01-21T08:17:08.694Z,2.02
2018-01-21T08:19:34.836Z,2.06
2018-01-21T08:22:01.021Z,2.09
2018-01-21T08:24:27.253Z,2.11
2018-01-21T08:26:54.660Z,2.13
2018-01-21T08:29:20.850Z,2.15
2018-01-21T08:31:47.042Z,2.17
2018-01-21T08:34:19.195Z,2.19
2018-01-21T08:36:54.452Z,2.22
2018-01-21T08:42:25.095Z,2.23
2018-01-21T08:44:51.983Z,2.22
2018-01-21T08:47:18.162Z,2.26
2018-01-21T08:49:44.319Z,2.27
2018-01-21T08:52:10.494Z,2.31
2018-01-21T08:54:36.737Z,2.34
2018-01-21T08:57:02.942Z,2.35
2018-01-21T08:59:31.957Z,2.37
2018-01-21T09:01:58.146Z,2.39
2018-01-21T09:04:24.350Z,2.41
2018-01-21T09:06:50.545Z,2.41
2018-01-21T09:09:16.715Z,2.45
2018-01-21T09:11:42.935Z,2.50
2018-01-21T09:14:09.161Z,2.56
2018-01-21T09:16:35.340Z,2.61
2018-01-21T09:19:01.525Z,2.65
2018-01-21T09:21:27.842Z,2.73
2018-01-21T09:23:54.046Z,2.77
2018-01-21T09:26:20.302Z,2.77
2018-01-21T09:28:46.485Z,2.84
2018-01-21T09:31:12.667Z,2.89
2018-01-21T09:33:38.930Z,2.97
2018-01-21T09:36:05.159Z,2.97
2018-01-21T09:38:31.322Z,2.99
2018-01-21T09:40:57.535Z,3.04
2018-01-21T09:43:23.804Z,3.06
2018-01-21T09:45:50.194Z,3.05
2018-01-21T09:48:16.355Z,3.07
2018-01-21T09:50:42.555Z,3.08
2018-01-21T09:53:08.726Z,3.09
2018-01-21T09:55:34.994Z,3.10
2018-01-21T09:58:01.420Z,3.12
2018-01-21T10:00:27.698Z,3.17
2018-01-21T10:02:53.866Z,3.20
2018-01-21T10:05:20.077Z,3.24
2018-01-21T10:07:46.333Z,3.30
2018-01-21T10:10:12.557Z,3.34
2018-01-21T10:12:38.708Z,3.38
2018-01-21T10:15:04.961Z,3.42
2018-01-21T10:17:31.164Z,3.49
2018-01-21T10:19:57.296Z,3.53
2018-01-21T10:22:23.478Z,3.58
2018-01-21T10:24:49.667Z,3.62
2018-01-21T10:27:15.807Z,3.70
2018-01-21T10:29:42.008Z,3.72
2018-01-21T10:32:08.160Z,3.75
2018-01-21T10:34:34.411Z,3.78
2018-01-21T10:37:00.636Z,3.86
2018-01-21T10:39:26.843Z,3.90
2018-01-21T10:41:53.076Z,3.96
2018-01-21T10:44:19.271Z,3.99
2018-01-21T10:46:45.430Z,4.03
2018-01-21T10:49:11.646Z,4.06
2018-01-21T10:51:37.914Z,4.08
2018-01-21T10:54:04.176Z,4.14
2018-01-21T10:56:30.347Z,4.20
2018-01-21T10:58:56.603Z,4.30
2018-01-21T11:01:22.912Z,4.35
2018-01-21T11:03:49.097Z,4.42
2018-01-21T11:06:15.398Z,4.47
2018-01-21T11:08:41.572Z,4.54
2018-01-21T11:11:07.724Z,4.57
2018-01-21T11:13:34.505Z,4.55
2018-01-21T11:16:00.730Z,4.55
2018-01-21T11:18:26.969Z,4.58
2018-01-21T11:20:53.158Z,4.69
2018-01-21T11:23:19.370Z,4.79
2018-01-21T11:25:45.522Z,4.85
2018-01-21T11:28:11.708Z,4.89
2018-01-21T11:30:37.957Z,4.87
2018-01-21T11:33:04.189Z,4.88
2018-01-21T11:35:30.416Z,4.92
2018-01-21T11:37:56.595Z,4.89
2018-01-21T11:40:22.771Z,4.85
2018-01-21T11:42:49.029Z,4.83
2018-01-21T11:45:15.292Z,4.87
2018-01-21T11:47:41.479Z,4.89
2018-01-21T11:50:08.197Z,4.92
2018-01-21T11:52:34.416Z,4.92
2018-01-21T11:55:01.814Z,4.93
2018-01-21T11:57:28.046Z,4.98
2018-01-21T11:59:54.441Z,4.97
2018-01-21T12:02:20.672Z,4.95
2018-01-21T12:04:46.872Z,4.99
2018-01-21T12:07:13.065Z,5.02
2018-01-21T12:09:39.235Z,5.05
2018-01-21T12:12:05.492Z,5.13
2018-01-21T12:14:31.720Z,5.16
2018-01-21T12:16:57.891Z,5.16
2018-01-21T12:19:24.243Z,5.13
2018-01-21T12:21:50.519Z,5.11
2018-01-21T12:24:16.690Z,5.08
2018-01-21T12:26:42.866Z,5.10
2018-01-21T12:29:09.103Z,5.15
2018-01-21T12:31:35.286Z,5.14
2018-01-21T12:34:01.634Z,5.21
2018-01-21T12:36:27.805Z,5.24
2018-01-21T12:38:54.038Z,5.30
2018-01-21T12:41:20.265Z,5.26
2018-01-21T12:43:46.533Z,5.26
2018-01-21T12:46:12.748Z,5.26
2018-01-21T12:48:40.170Z,5.16
2018-01-21T12:51:06.383Z,5.18
2018-01-21T12:53:32.603Z,5.20
2018-01-21T12:55:58.836Z,5.20
2018-01-21T12:58:25.041Z,5.18
2018-01-21T13:00:51.252Z,5.08
2018-01-21T13:03:17.633Z,5.03
2018-01-21T13:05:43.781Z,5.00
2018-01-21T13:08:10.072Z,4.98
2018-01-21T13:10:38.425Z,4.90
2018-01-21T13:13:04.679Z,4.89
2018-01-21T13:15:30.916Z,4.91
2018-01-21T13:17:57.137Z,4.86
2018-01-21T13:20:23.414Z,4.90
2018-01-21T13:22:49.683Z,4.86
2018-01-21T13:25:15.893Z,4.83
2018-01-21T13:27:43.086Z,4.80
2018-01-21T13:30:09.332Z,4.73
2018-01-21T13:32:37.572Z,4.67
2018-01-21T13:35:03.756Z,4.66
2018-01-21T13:37:29.958Z,4.66
2018-01-21T13:39:56.189Z,4.65
2018-01-21T13:42:22.460Z,4.65
2018-01-21T13:44:48.797Z,4.61
2018-01-21T13:47:15.007Z,4.58
2018-01-21T13:49:41.288Z,4.54
2018-01-21T13:52:07.496Z,4.48
2018-01-21T13:54:33.757Z,4.49
2018-01-21T13:56:59.983Z,4.43
2018-01-21T13:59:26.219Z,4.32
2018-01-21T14:01:52.504Z,4.11
2018-01-21T14:04:18.924Z,4.04
2018-01-21T14:06:45.135Z,3.90
2018-01-21T14:09:11.386Z,3.84
2018-01-21T14:11:37.724Z,3.74
2018-01-21T14:14:03.993Z,3.78
2018-01-21T14:16:30.988Z,3.76
2018-01-21T14:18:57.200Z,3.77
2018-01-21T14:21:23.388Z,3.69
2018-01-21T14:23:49.616Z,3.73
2018-01-21T14:26:15.820Z,3.71
2018-01-21T14:28:41.992Z,3.67
2018-01-21T14:31:08.192Z,3.63
2018-01-21T14:33:34.471Z,3.61
2018-01-21T14:36:00.640Z,3.58
2018-01-21T14:38:26.882Z,3.57
2018-01-21T14:40:53.088Z,3.55
2018-01-21T14:43:19.687Z,3.51
2018-01-21T14:45:45.913Z,3.42
2018-01-21T14:48:12.152Z,3.40
2018-01-21T14:50:38.314Z,3.33
2018-01-21T14:53:04.637Z,3.32
2018-01-21T14:55:30.907Z,3.29
2018-01-21T14:57:57.163Z,3.25
2018-01-21T15:00:23.392Z,3.22
2018-01-21T15:02:49.665Z,3.22
2018-01-21T15:05:15.936Z,3.18
2018-01-21T15:07:42.195Z,3.14
2018-01-21T15:10:08.413Z,3.13
2018-01-21T15:12:34.707Z,3.11
2018-01-21T15:15:00.953Z,3.12
2018-01-21T15:17:27.132Z,3.09
2018-01-21T15:19:53.397Z,3.05
2018-01-21T15:22:19.605Z,3.04
2018-01-21T15:24:45.897Z,3.06
2018-01-21T15:27:12.134Z,3.06
2018-01-21T15:29:38.515Z,3.00
2018-01-21T15:32:04.740Z,2.93
2018-01-21T15:34:31.012Z,2.92
2018-01-21T15:36:57.252Z,2.90
2018-01-21T15:39:23.448Z,2.87
2018-01-21T15:41:50.023Z,2.90
2018-01-21T15:44:16.420Z,2.87
2018-01-21T15:46:42.700Z,2.86
2018-01-21T15:49:08.877Z,2.83
2018-01-21T15:51:35.080Z,2.82
2018-01-21T15:54:01.365Z,2.84
2018-01-21T15:56:28.101Z,2.81
2018-01-21T15:58:54.312Z,2.78
2018-01-21T16:01:20.543Z,2.71
2018-01-21T16:03:46.734Z,2.68
2018-01-21T16:06:13.041Z,2.64
2018-01-21T16:08:39.370Z,2.58
2018-01-21T16:11:05.659Z,2.58
2018-01-21T16:13:31.894Z,2.57
2018-01-21T16:15:58.521Z,2.56
2018-01-21T16:18:24.819Z,2.56
2018-01-21T16:20:51.122Z,2.59
2018-01-21T16:23:17.316Z,2.54
2018-01-21T16:25:43.575Z,2.54
2018-01-21T16:28:10.102Z,2.52
2018-01-21T16:30:36.288Z,2.50
2018-01-21T16:33:02.535Z,2.52
2018-01-21T16:35:28.752Z,2.51
2018-01-21T16:41:03.404Z,2.49
2018-01-21T16:43:29.724Z,2.46
2018-01-21T16:45:55.927Z,2.47
2018-01-21T16:48:22.258Z,2.43
2018-01-21T16:50:48.895Z,2.44
2018-01-21T16:53:15.063Z,2.45
2018-01-21T16:55:41.488Z,2.45
2018-01-21T16:58:07.712Z,2.42
2018-01-21T17:00:33.887Z,2.46
2018-01-21T17:03:00.043Z,2.47
2018-01-21T17:05:27.422Z,2.49
2018-01-21T17:07:53.626Z,2.48
2018-01-21T17:10:19.801Z,2.49
2018-01-21T17:12:46.315Z,2.43
2018-01-21T17:15:12.600Z,2.44
2018-01-21T17:17:38.860Z,2.45
2018-01-21T17:20:05.023Z,2.43
2018-01-21T17:22:31.309Z,2.44
2018-01-21T17:24:57.461Z,2.42
2018-01-21T17:27:23.718Z,2.43
2018-01-21T17:29:49.911Z,2.43
2018-01-21T17:32:16.089Z,2.44
2018-01-21T17:34:42.704Z,2.48
2018-01-21T17:37:08.970Z,2.46
2018-01-21T17:39:35.233Z,2.49
2018-01-21T17:42:01.584Z,2.51
2018-01-21T17:44:27.911Z,2.52
2018-01-21T17:46:54.144Z,2.54
2018-01-21T17:49:20.331Z,2.54
2018-01-21T17:51:47.541Z,2.60
2018-01-21T17:54:13.703Z,2.61
2018-01-21T17:56:39.986Z,2.62
2018-01-21T17:59:06.243Z,2.65
2018-01-21T18:01:32.442Z,2.66
2018-01-21T18:03:58.753Z,2.66
2018-01-21T18:06:24.969Z,2.66
2018-01-21T18:08:51.182Z,2.68
2018-01-21T18:11:17.471Z,2.71
2018-01-21T18:13:43.746Z,2.73
2018-01-21T18:16:10.011Z,2.70
2018-01-21T18:18:36.230Z,2.72
2018-01-21T18:21:02.419Z,2.73
2018-01-21T18:23:30.013Z,2.77
2018-01-21T18:25:56.271Z,2.78
2018-01-21T18:28:22.480Z,2.80
2018-01-21T18:30:48.679Z,2.82
2018-01-21T18:33:14.854Z,2.85
2018-01-21T18:35:41.112Z,2.85
2018-01-21T18:38:07.329Z,2.85
2018-01-21T18:40:33.636Z,2.88
2018-01-21T18:42:59.979Z,2.89
2018-01-21T18:45:26.237Z,2.90
2018-01-21T18:47:52.591Z,2.92
2018-01-21T18:50:18.791Z,2.95
2018-01-21T18:52:44.977Z,2.97
2018-01-21T18:55:11.161Z,2.97
2018-01-21T18:57:37.478Z,2.97
2018-01-21T19:00:03.797Z,2.98
2018-01-21T19:02:30.149Z,3.00
2018-01-21T19:04:56.340Z,3.00
2018-01-21T19:07:22.673Z,3.02
2018-01-21T19:09:49.058Z,3.01
2018-01-21T19:12:15.243Z,3.01
2018-01-21T19:14:41.616Z,3.00
2018-01-21T19:17:07.879Z,2.99
2018-01-21T19:19:34.111Z,3.01
2018-01-21T19:22:00.322Z,3.00
2018-01-21T19:24:26.582Z,3.02
2018-01-21T19:26:52.844Z,3.00
2018-01-21T19:29:19.074Z,3.04
2018-01-21T19:31:45.345Z,3.02
2018-01-21T19:34:12.833Z,3.04
2018-01-21T19:36:39.145Z,3.03
2018-01-21T19:39:20.293Z,3.03
2018-01-21T19:41:50.394Z,3.03
2018-01-21T19:44:17.611Z,3.02
2018-01-21T19:46:43.936Z,3.04
2018-01-21T19:49:10.131Z,3.04
2018-01-21T19:51:36.365Z,3.04
2018-01-21T19:54:02.671Z,3.04
2018-01-21T19:56:28.929Z,3.04
2018-01-21T19:58:55.202Z,3.05
2018-01-21T20:01:21.488Z,3.05
2018-01-21T20:03:47.676Z,3.06
2018-01-21T20:06:14.149Z,3.06
2018-01-21T20:08:40.472Z,3.06
2018-01-21T20:11:06.656Z,3.05
2018-01-21T20:13:33.008Z,3.07
2018-01-21T20:15:59.358Z,3.08
2018-01-21T20:18:25.906Z,3.08
2018-01-21T20:20:52.144Z,3.10
2018-01-21T20:23:18.386Z,3.09
2018-01-21T20:25:44.622Z,3.10
2018-01-21T20:28:10.877Z,3.12
2018-01-21T20:30:38.889Z,3.12
2018-01-21T20:33:05.150Z,3.14
2018-01-21T20:35:31.379Z,3.14
2018-01-21T20:37:57.692Z,3.16
2018-01-21T20:40:23.939Z,3.15
2018-01-21T20:42:50.174Z,3.15
2018-01-21T20:45:16.528Z,3.17
2018-01-21T20:47:42.811Z,3.17
2018-01-21T20:50:09.003Z,3.19
2018-01-21T20:52:41.436Z,3.21
2018-01-21T20:55:07.732Z,3.22
2018-01-21T20:57:33.986Z,3.22
2018-01-21T21:00:00.259Z,3.23
2018-01-21T21:02:26.513Z,3.23
2018-01-21T21:04:52.701Z,3.25
2018-01-21T21:07:18.955Z,3.27
2018-01-21T21:09:45.135Z,3.27
2018-01-21T21:12:11.379Z,3.27
2018-01-21T21:14:37.638Z,3.29
2018-01-21T21:17:03.949Z,3.30
2018-01-21T21:19:30.192Z,3.32
2018-01-21T21:21:56.365Z,3.33
2018-01-21T21:24:22.632Z,3.33
2018-01-21T21:26:48.985Z,3.33
2018-01-21T21:29:15.283Z,3.36
2018-01-21T21:31:41.631Z,3.37
2018-01-21T21:34:07.897Z,3.39
2018-01-21T21:36:34.187Z,3.40
2018-01-21T21:39:00.439Z,3.42
2018-01-21T21:41:26.663Z,3.41
2018-01-21T21:43:52.909Z,3.44
2018-01-21T21:46:19.282Z,3.46
2018-01-21T21:48:45.513Z,3.49
2018-01-21T21:51:11.718Z,3.49
2018-01-21T21:53:37.876Z,3.50
2018-01-21T21:56:04.085Z,3.52
2018-01-21T21:58:30.326Z,3.54
2018-01-21T22:00:56.536Z,3.57
2018-01-21T22:03:22.709Z,3.60
2018-01-21T22:05:48.906Z,3.62
2018-01-21T22:08:15.201Z,3.61
2018-01-21T22:10:41.686Z,3.64
2018-01-21T22:13:07.891Z,3.67
2018-01-21T22:15:34.184Z,3.69
2018-01-21T22:18:00.415Z,3.70
2018-01-21T22:20:26.579Z,3.73
2018-01-21T22:22:52.736Z,3.74
2018-01-21T22:25:18.936Z,3.77
2018-01-21T22:27:45.328Z,3.78
2018-01-21T22:30:11.522Z,3.82
2018-01-21T22:32:37.685Z,3.85
2018-01-21T22:35:03.902Z,3.86
2018-01-21T22:37:30.113Z,3.88
2018-01-21T22:39:56.276Z,3.89
2018-01-21T22:42:22.574Z,3.90
2018-01-21T22:44:48.891Z,3.91
2018-01-21T22:47:15.129Z,3.94
2018-01-21T22:49:41.298Z,3.94
2018-01-21T22:52:07.555Z,3.96
2018-01-21T22:54:33.728Z,3.99
2018-01-21T22:56:59.939Z,4.00
2018-01-21T22:59:26.198Z,4.01
2018-01-21T23:01:52.381Z,4.03
2018-01-21T23:04:18.596Z,4.05
2018-01-21T23:06:44.851Z,4.08
2018-01-21T23:09:11.111Z,4.11
2018-01-21T23:11:37.257Z,4.14
2018-01-21T23:14:03.466Z,4.17
2018-01-21T23:16:29.673Z,4.22
2018-01-21T23:18:55.985Z,4.28
2018-01-21T23:21:22.144Z,4.30
2018-01-21T23:23:48.333Z,4.33
2018-01-21T23:26:14.536Z,4.35
2018-01-21T23:28:40.829Z,4.38
2018-01-21T23:31:06.982Z,4.41
2018-01-21T23:33:33.122Z,4.45
2018-01-21T23:35:59.314Z,4.48
2018-01-21T23:38:25.682Z,4.52
2018-01-21T23:40:51.888Z,4.55
2018-01-21T23:43:18.033Z,4.58
2018-01-21T23:45:44.249Z,4.59
2018-01-21T23:48:11.714Z,4.62
2018-01-21T23:50:37.867Z,4.67
2018-01-21T23:53:04.003Z,4.72
2018-01-21T23:55:30.261Z,4.77
2018-01-21T23:57:56.472Z,4.81
